• Join FlightAware (Why Join?)
  • Login
  • US Flag 
12:18AM EDT


 

Airport Tracker/Info


-or-


 

Live Flight TrackerFlight Track Log ✈ VH-TXI ✈ 09-Jul-2013 ✈ YCFS - YCFS

Flight Track Log - Related Links

Times and Time Zones

All times are in EDT time to prevent confusion due to time zone crossing. See the VH-TXI flight status page for this flight to view local times or setup timezone preferences in your user account.

Time Position Orientation Groundspeed Altitude Reporting Facility
EDT Latitude Longitude Course Direction KTS MPH feet Rate Location/Type
07:34PM -30.3206 153.1164 255° West  Level Estimated
07:34PM -30.3164 153.1746 345° North 3,500  Level Aus ATC (Calculated)
07:35PM -30.3223 153.1089 255° West  Level FlightAware Approximate
07:36PM -30.3189 153.1593 259° West  Level FlightAware Approximate
07:37PM -30.3202 153.1517 259° West  Level FlightAware Approximate
07:38PM -30.3214 153.1440 259° West  Level FlightAware Approximate
07:39PM -30.3227 153.1364 259° West  Level FlightAware Approximate
07:40PM -30.3240 153.1288 259° West  Level FlightAware Approximate
07:41PM -30.3252 153.1211 259° West  Level FlightAware Approximate
07:41PM -30.3408 153.0267 40° Northeast 6,900  Level Aus ATC (Calculated)
07:42PM -30.3206 153.1164 350° North  Level Estimated
07:43PM -30.3199 153.1086 276° West  Level FlightAware Approximate
07:44PM -30.3192 153.1009 276° West  Level FlightAware Approximate
07:45PM -30.3185 153.0932 276° West  Level FlightAware Approximate
07:46PM -30.3179 153.0854 276° West  Level FlightAware Approximate
07:46PM -30.4126 153.1172 North 4,600  Level Aus ATC (Calculated)
07:47PM -30.3156 153.0591 96° East  Level FlightAware Approximate
07:48PM -30.3162 153.0668 96° East  Level FlightAware Approximate
07:49PM -30.3964 153.1170 360° North  Level FlightAware Approximate
07:50PM -30.3897 153.1170 360° North  Level FlightAware Approximate
07:51PM -30.3830 153.1169 360° North  Level FlightAware Approximate
07:52PM -30.3762 153.1168 360° North  Level FlightAware Approximate
07:53PM -30.3695 153.1168 96° East  Level Estimated
07:54PM -30.3628 153.1167 96° East  Level Estimated
07:55PM -30.3561 153.1167 96° East  Level Estimated
07:56PM -30.3494 153.1166 96° East  Level Estimated
07:56PM -30.2210 153.1447 96° East 231 266 9,600  Level Aus ATC (RADAR)
07:57PM -30.3427 153.1166 96° East  Level Estimated
07:58PM -30.2643 153.1840 142° Southeast 128 147 10,100  Level Aus ATC (RADAR)
08:00PM -30.2898 153.1488 230° Southwest 95 109 10,200 -420 Climbing Aus ATC (RADAR)
08:02PM -30.3195 153.1259 214° Southwest 81 93 8,600 -900 Descending Aus ATC (RADAR)
08:04PM -30.3186 153.1117 275° West  Level FlightAware Approximate
08:11PM -30.3206 153.1164 96° East  Level Estimated
08:12PM -30.3236 153.1095 243° Southwest  Level FlightAware Approximate
08:13PM -30.3206 153.1164 63° Northeast  Level FlightAware Approximate
08:14PM -30.3236 153.1095 243° Southwest  Level FlightAware Approximate
08:15PM -30.3206 153.1164 63° Northeast  Level FlightAware Approximate